Time;durP1;ratioP1;P1;durP2;ratioP2;P2;SDS_P1;SDS_P2;PMS_P1;PMS_P2;Temp;Humidity;BMP_temperature;BMP_pressure;BME280_temperature;BME280_humidity;BME280_pressure;Samples;Min_cycle;Max_cycle;Signal;HPM_P1;HPM_P2
2023/08/23 00:00:07;;;;;;;9.57;5.53;;;;;;;;;;5064981;28;20044;-67
2023/08/23 00:02:34;;;;;;;11.82;5.32;;;;;;;;;;5072387;28;20147;-66
2023/08/23 00:05:01;;;;;;;10.63;4.68;;;;;;;;;;5052669;28;20048;-66
2023/08/23 00:07:28;;;;;;;8.63;4.85;;;;;;;;;;5070352;28;20048;-66
2023/08/23 00:09:56;;;;;;;12.20;5.60;;;;;;;;;;5070927;28;20051;-66
2023/08/23 00:12:23;;;;;;;8.63;5.05;;;;;;;;;;5071311;28;20487;-65
2023/08/23 00:14:51;;;;;;;7.07;5.22;;;;;;;;;;5071249;28;20053;-66
2023/08/23 00:17:19;;;;;;;14.32;5.55;;;;;;;;;;5070838;28;20044;-66
2023/08/23 00:19:46;;;;;;;7.75;5.28;;;;;;;;;;5071338;28;20055;-66
2023/08/23 00:22:13;;;;;;;7.63;5.00;;;;;;;;;;5069423;28;20048;-66
2023/08/23 00:24:40;;;;;;;8.80;5.35;;;;;;;;;;5064494;28;20056;-67
2023/08/23 00:27:08;;;;;;;9.25;5.70;;;;;;;;;;5070447;28;20048;-66
2023/08/23 00:29:35;;;;;;;8.73;5.40;;;;;;;;;;5071421;28;20067;-66
2023/08/23 00:32:04;;;;;;;8.55;5.22;;;;;;;;;;5062195;28;20044;-66
2023/08/23 00:34:31;;;;;;;9.70;5.05;;;;;;;;;;5068412;28;20484;-66
2023/08/23 00:36:58;;;;;;;8.43;5.32;;;;;;;;;;5067971;28;20101;-66
2023/08/23 00:39:25;;;;;;;9.00;5.13;;;;;;;;;;5070335;28;20048;-66
2023/08/23 00:41:52;;;;;;;7.85;5.50;;;;;;;;;;5051564;28;20049;-66
2023/08/23 00:44:20;;;;;;;10.90;5.20;;;;;;;;;;5070409;28;20677;-65
2023/08/23 00:46:47;;;;;;;10.90;5.55;;;;;;;;;;5071255;28;20060;-66
2023/08/23 00:49:16;;;;;;;8.57;5.13;;;;;;;;;;5067959;28;20082;-67
2023/08/23 00:51:43;;;;;;;10.00;5.82;;;;;;;;;;5065055;28;20076;-66
2023/08/23 00:54:11;;;;;;;8.50;5.45;;;;;;;;;;5069328;28;20036;-66
2023/08/23 00:56:38;;;;;;;9.95;5.85;;;;;;;;;;5070280;28;20040;-67
2023/08/23 00:59:07;;;;;;;11.50;5.38;;;;;;;;;;5070195;28;20056;-67
2023/08/23 01:01:35;;;;;;;9.48;6.03;;;;;;;;;;5067532;28;20411;-66
2023/08/23 01:04:02;;;;;;;12.27;5.20;;;;;;;;;;5052348;28;20189;-66
2023/08/23 01:06:33;;;;;;;9.35;5.40;;;;;;;;;;5068747;28;20068;-66
2023/08/23 01:09:04;;;;;;;9.63;5.40;;;;;;;;;;5070454;28;20056;-66
2023/08/23 01:11:34;;;;;;;9.82;5.00;;;;;;;;;;5062344;28;20049;-66
2023/08/23 01:14:04;;;;;;;9.18;5.43;;;;;;;;;;5066283;28;20515;-67
2023/08/23 01:16:32;;;;;;;10.05;5.30;;;;;;;;;;5062037;28;20056;-67
2023/08/23 01:19:01;;;;;;;10.20;5.53;;;;;;;;;;5070045;28;20509;-66
2023/08/23 01:21:33;;;;;;;9.63;5.88;;;;;;;;;;5069760;28;20102;-66
2023/08/23 01:24:08;;;;;;;12.68;6.45;;;;;;;;;;5069862;28;20123;-66
2023/08/23 01:26:35;;;;;;;16.52;6.55;;;;;;;;;;5069666;28;20076;-66
2023/08/23 01:29:02;;;;;;;12.88;6.18;;;;;;;;;;5068322;28;20052;-66
2023/08/23 01:31:31;;;;;;;11.23;5.70;;;;;;;;;;5050656;28;20075;-67
2023/08/23 01:34:02;;;;;;;11.15;6.45;;;;;;;;;;5065930;28;20060;-67
2023/08/23 01:36:30;;;;;;;10.60;5.75;;;;;;;;;;5067187;28;20048;-66
2023/08/23 01:38:58;;;;;;;10.32;5.80;;;;;;;;;;5069350;28;20048;-66
2023/08/23 01:41:27;;;;;;;11.20;6.15;;;;;;;;;;5066647;28;20055;-66
2023/08/23 01:43:54;;;;;;;11.73;6.45;;;;;;;;;;5069829;28;20049;-66
2023/08/23 01:46:21;;;;;;;10.90;6.00;;;;;;;;;;5066240;28;20041;-66
2023/08/23 01:48:48;;;;;;;10.23;5.78;;;;;;;;;;5067848;28;20071;-66
2023/08/23 01:51:16;;;;;;;10.07;6.28;;;;;;;;;;5068271;28;20041;-67
2023/08/23 01:53:43;;;;;;;10.35;6.10;;;;;;;;;;5068214;28;20055;-66
2023/08/23 01:56:10;;;;;;;13.68;6.03;;;;;;;;;;5068954;28;20514;-67
2023/08/23 01:58:39;;;;;;;10.63;6.20;;;;;;;;;;5069956;28;20063;-66
2023/08/23 02:01:06;;;;;;;11.50;6.35;;;;;;;;;;5066545;28;20595;-67
2023/08/23 02:03:33;;;;;;;14.65;6.13;;;;;;;;;;5070312;28;20045;-66
2023/08/23 02:06:00;;;;;;;9.50;5.72;;;;;;;;;;5068103;28;20166;-66
2023/08/23 02:08:28;;;;;;;10.98;6.35;;;;;;;;;;5061154;28;20057;-67
2023/08/23 02:10:55;;;;;;;9.90;5.82;;;;;;;;;;5068115;28;20089;-66
2023/08/23 02:13:22;;;;;;;11.25;6.05;;;;;;;;;;5069691;28;20052;-67
2023/08/23 02:15:51;;;;;;;11.98;5.82;;;;;;;;;;5066457;28;20044;-66
2023/08/23 02:18:19;;;;;;;12.10;6.30;;;;;;;;;;5061140;28;20557;-67
2023/08/23 02:20:46;;;;;;;10.40;5.38;;;;;;;;;;5073588;28;20401;-67
2023/08/23 02:23:14;;;;;;;9.15;5.60;;;;;;;;;;5071563;28;20505;-67
2023/08/23 02:25:41;;;;;;;9.38;5.72;;;;;;;;;;5054663;28;20052;-67
2023/08/23 02:28:08;;;;;;;12.38;6.15;;;;;;;;;;5052228;28;20053;-66
2023/08/23 02:30:35;;;;;;;9.35;6.07;;;;;;;;;;5071161;28;20048;-66
2023/08/23 02:33:04;;;;;;;12.73;5.97;;;;;;;;;;5070228;28;20083;-66
2023/08/23 02:35:31;;;;;;;11.68;5.88;;;;;;;;;;5071829;28;20057;-66
2023/08/23 02:38:01;;;;;;;11.48;6.00;;;;;;;;;;5072157;28;20052;-67
2023/08/23 02:40:28;;;;;;;11.05;6.32;;;;;;;;;;5051936;28;20492;-66
2023/08/23 02:42:56;;;;;;;9.75;6.10;;;;;;;;;;5072270;28;20059;-66
2023/08/23 02:45:23;;;;;;;12.65;6.28;;;;;;;;;;5072678;28;20041;-66
2023/08/23 02:47:50;;;;;;;13.10;6.65;;;;;;;;;;5071440;28;20094;-67
2023/08/23 02:50:19;;;;;;;10.55;6.55;;;;;;;;;;5073351;28;20047;-66
2023/08/23 02:52:46;;;;;;;9.27;6.32;;;;;;;;;;5072304;28;20148;-66
2023/08/23 02:55:13;;;;;;;11.35;6.63;;;;;;;;;;5072357;28;20438;-66
2023/08/23 02:57:40;;;;;;;10.18;6.35;;;;;;;;;;5069550;28;20053;-66
2023/08/23 03:00:08;;;;;;;10.52;5.97;;;;;;;;;;5072752;28;20041;-66
2023/08/23 03:02:35;;;;;;;12.45;6.13;;;;;;;;;;5054564;28;20064;-66
2023/08/23 03:05:03;;;;;;;13.38;6.38;;;;;;;;;;5073549;28;20049;-66
2023/08/23 03:07:31;;;;;;;11.13;6.63;;;;;;;;;;5072038;28;20565;-66
2023/08/23 03:09:59;;;;;;;14.20;7.13;;;;;;;;;;5070673;28;20052;-67
2023/08/23 03:12:26;;;;;;;12.95;6.97;;;;;;;;;;5071874;28;20055;-66
2023/08/23 03:14:53;;;;;;;13.32;6.57;;;;;;;;;;5072168;28;20067;-66
2023/08/23 03:17:20;;;;;;;11.50;6.90;;;;;;;;;;5071785;28;20052;-66
2023/08/23 03:19:48;;;;;;;13.52;7.10;;;;;;;;;;5066879;28;20048;-66
2023/08/23 03:22:15;;;;;;;14.38;7.65;;;;;;;;;;5072483;28;20067;-66
2023/08/23 03:24:44;;;;;;;11.23;6.90;;;;;;;;;;5071001;28;20533;-66
2023/08/23 03:27:11;;;;;;;11.43;7.00;;;;;;;;;;5070661;28;20052;-66
2023/08/23 03:29:38;;;;;;;10.52;7.05;;;;;;;;;;5071353;28;20144;-66
2023/08/23 03:32:06;;;;;;;12.32;7.00;;;;;;;;;;5069990;28;20412;-66
2023/08/23 03:34:33;;;;;;;16.30;7.07;;;;;;;;;;5072689;28;20060;-66
2023/08/23 03:37:00;;;;;;;13.85;7.30;;;;;;;;;;5070767;28;20055;-66
2023/08/23 03:39:27;;;;;;;13.52;7.65;;;;;;;;;;5069509;28;20102;-66
2023/08/23 03:41:56;;;;;;;14.32;7.68;;;;;;;;;;5071311;28;20048;-66
2023/08/23 03:44:23;;;;;;;14.23;7.55;;;;;;;;;;5072292;28;20040;-67
2023/08/23 03:46:50;;;;;;;12.50;7.10;;;;;;;;;;5071063;28;20484;-66
2023/08/23 03:49:18;;;;;;;12.00;7.35;;;;;;;;;;5071995;28;20041;-66
2023/08/23 03:51:45;;;;;;;12.20;7.68;;;;;;;;;;5071190;28;20056;-66
2023/08/23 03:54:12;;;;;;;15.30;7.65;;;;;;;;;;5065119;28;20044;-66
2023/08/23 03:56:39;;;;;;;12.95;7.70;;;;;;;;;;5071028;28;20403;-65
2023/08/23 03:59:08;;;;;;;13.32;7.68;;;;;;;;;;5071284;28;20059;-66
2023/08/23 04:01:35;;;;;;;14.52;8.38;;;;;;;;;;5069322;28;20059;-66
2023/08/23 04:04:02;;;;;;;17.40;8.10;;;;;;;;;;5072200;28;20045;-66
2023/08/23 04:06:30;;;;;;;12.90;8.20;;;;;;;;;;5069604;28;20063;-66
2023/08/23 04:08:57;;;;;;;13.00;7.70;;;;;;;;;;5069434;28;20407;-66
2023/08/23 04:11:24;;;;;;;15.00;8.02;;;;;;;;;;5069557;28;20044;-66
2023/08/23 04:13:51;;;;;;;14.82;8.73;;;;;;;;;;5070253;28;20075;-66
2023/08/23 04:16:20;;;;;;;15.15;8.15;;;;;;;;;;5069704;28;20057;-67
2023/08/23 04:18:47;;;;;;;14.90;8.25;;;;;;;;;;5066823;28;20046;-66
2023/08/23 04:21:14;;;;;;;16.77;9.25;;;;;;;;;;5070353;28;20044;-66
2023/08/23 04:23:42;;;;;;;14.63;8.98;;;;;;;;;;5067169;28;20476;-66
2023/08/23 04:26:09;;;;;;;17.80;8.80;;;;;;;;;;5070669;28;20041;-67
2023/08/23 04:28:37;;;;;;;18.63;9.52;;;;;;;;;;5053398;28;20055;-67
2023/08/23 04:31:04;;;;;;;16.27;9.30;;;;;;;;;;5070773;28;20055;-66
2023/08/23 04:33:34;;;;;;;19.73;10.20;;;;;;;;;;5070563;28;20127;-66
2023/08/23 04:36:02;;;;;;;21.77;10.65;;;;;;;;;;5062220;28;20499;-66
2023/08/23 04:38:29;;;;;;;20.08;10.20;;;;;;;;;;5070501;28;20060;-66
2023/08/23 04:41:00;;;;;;;26.42;11.23;;;;;;;;;;5070605;28;20044;-66
2023/08/23 04:43:27;;;;;;;18.88;10.90;;;;;;;;;;5069129;28;20156;-66
2023/08/23 04:45:56;;;;;;;27.08;12.05;;;;;;;;;;5065319;28;20117;-66
2023/08/23 04:48:26;;;;;;;22.88;11.32;;;;;;;;;;5066749;28;20043;-66
2023/08/23 04:50:56;;;;;;;24.63;11.65;;;;;;;;;;5065057;28;20101;-66
2023/08/23 04:53:23;;;;;;;21.48;11.45;;;;;;;;;;5069898;28;20052;-65
2023/08/23 04:55:50;;;;;;;21.70;11.13;;;;;;;;;;5065958;28;20415;-66
2023/08/23 04:58:18;;;;;;;25.17;12.02;;;;;;;;;;5068669;28;20048;-66
2023/08/23 05:00:45;;;;;;;22.48;11.57;;;;;;;;;;5069753;28;20048;-66
2023/08/23 05:03:12;;;;;;;22.42;11.30;;;;;;;;;;5069973;28;20558;-66
2023/08/23 05:05:40;;;;;;;19.73;10.85;;;;;;;;;;5067457;28;20052;-66
2023/08/23 05:08:08;;;;;;;23.83;11.63;;;;;;;;;;5069160;28;20064;-66
2023/08/23 05:10:36;;;;;;;21.73;11.75;;;;;;;;;;5062688;28;20504;-66
2023/08/23 05:13:03;;;;;;;21.15;11.55;;;;;;;;;;5068501;28;20057;-66
2023/08/23 05:15:30;;;;;;;20.00;11.15;;;;;;;;;;5066812;28;20143;-67
2023/08/23 05:17:57;;;;;;;21.40;11.10;;;;;;;;;;5065580;28;20037;-66
2023/08/23 05:20:24;;;;;;;22.77;11.40;;;;;;;;;;5067313;28;20044;-67
2023/08/23 05:22:52;;;;;;;20.00;10.80;;;;;;;;;;5067007;28;20051;-67
2023/08/23 05:25:20;;;;;;;22.67;11.68;;;;;;;;;;5069529;28;20395;-67
2023/08/23 05:27:47;;;;;;;22.52;12.27;;;;;;;;;;5054881;28;20060;-67
2023/08/23 05:30:15;;;;;;;21.85;12.27;;;;;;;;;;5066664;28;20048;-67
2023/08/23 05:32:42;;;;;;;26.40;12.60;;;;;;;;;;5069204;28;20071;-67
2023/08/23 05:35:10;;;;;;;20.35;11.95;;;;;;;;;;5067018;28;20051;-67
2023/08/23 05:37:37;;;;;;;25.13;13.50;;;;;;;;;;5065796;28;20051;-66
2023/08/23 05:40:05;;;;;;;24.95;13.27;;;;;;;;;;5050608;28;20044;-67
2023/08/23 05:42:34;;;;;;;26.52;13.52;;;;;;;;;;5066631;28;20158;-66
2023/08/23 05:45:01;;;;;;;23.65;13.40;;;;;;;;;;5068027;28;20499;-67
2023/08/23 05:47:28;;;;;;;27.10;13.60;;;;;;;;;;5065486;28;20052;-67
2023/08/23 05:49:55;;;;;;;23.58;12.48;;;;;;;;;;5067406;28;20445;-67
2023/08/23 05:52:23;;;;;;;31.08;13.05;;;;;;;;;;5063975;28;20044;-67
2023/08/23 05:54:50;;;;;;;27.73;13.13;;;;;;;;;;5069102;28;20064;-67
2023/08/23 05:57:17;;;;;;;27.92;12.85;;;;;;;;;;5067613;28;20059;-68
2023/08/23 05:59:46;;;;;;;24.42;13.18;;;;;;;;;;5064577;28;20052;-67
2023/08/23 06:02:13;;;;;;;24.35;12.27;;;;;;;;;;5063547;28;20329;-67
2023/08/23 06:04:40;;;;;;;24.42;12.68;;;;;;;;;;5067132;28;20052;-67
2023/08/23 06:07:07;;;;;;;25.05;12.13;;;;;;;;;;5061012;28;20503;-67
2023/08/23 06:09:35;;;;;;;20.92;12.05;;;;;;;;;;5062371;28;20049;-67
2023/08/23 06:12:02;;;;;;;23.55;12.77;;;;;;;;;;5065672;28;20426;-67
2023/08/23 06:14:29;;;;;;;18.55;11.07;;;;;;;;;;5051688;28;20052;-67
2023/08/23 06:16:58;;;;;;;23.38;11.23;;;;;;;;;;5069468;28;20040;-66
2023/08/23 06:19:25;;;;;;;22.20;11.15;;;;;;;;;;5065367;28;20412;-67
2023/08/23 06:21:52;;;;;;;22.95;11.02;;;;;;;;;;5066704;28;20056;-67
2023/08/23 06:24:19;;;;;;;20.33;11.43;;;;;;;;;;5061750;28;20048;-67
2023/08/23 06:26:47;;;;;;;20.95;10.50;;;;;;;;;;5067603;28;20469;-67
2023/08/23 06:29:14;;;;;;;18.08;10.65;;;;;;;;;;5070562;28;20044;-67
2023/08/23 06:31:41;;;;;;;24.23;11.38;;;;;;;;;;5067630;28;20400;-67
2023/08/23 06:34:10;;;;;;;21.75;10.95;;;;;;;;;;5068068;28;20094;-67
2023/08/23 06:36:37;;;;;;;23.45;11.60;;;;;;;;;;5069410;28;20051;-67
2023/08/23 06:39:05;;;;;;;20.98;10.88;;;;;;;;;;5068645;28;20045;-67
2023/08/23 06:41:32;;;;;;;21.35;10.65;;;;;;;;;;5049656;28;20060;-67
2023/08/23 06:44:00;;;;;;;17.80;10.18;;;;;;;;;;5061697;28;20087;-67
2023/08/23 06:46:27;;;;;;;22.25;10.55;;;;;;;;;;5065307;28;20048;-67
2023/08/23 06:48:54;;;;;;;22.20;10.57;;;;;;;;;;5067905;28;20102;-67
2023/08/23 06:51:27;;;;;;;18.00;9.77;;;;;;;;;;5051656;28;20048;-67
2023/08/23 06:53:54;;;;;;;20.00;8.90;;;;;;;;;;5065177;28;20052;-67
2023/08/23 06:56:21;;;;;;;16.63;9.02;;;;;;;;;;5059605;28;20043;-64
2023/08/23 06:58:51;;;;;;;18.40;8.75;;;;;;;;;;5064569;28;20075;-66
2023/08/23 07:01:19;;;;;;;12.40;7.75;;;;;;;;;;5066517;28;20504;-66
2023/08/23 07:03:46;;;;;;;14.00;8.02;;;;;;;;;;5063958;28;20507;-67
2023/08/23 07:06:14;;;;;;;14.77;7.55;;;;;;;;;;5071261;28;20886;-63
2023/08/23 07:08:43;;;;;;;16.40;8.27;;;;;;;;;;5058690;28;20037;-64
2023/08/23 07:11:11;;;;;;;12.50;7.45;;;;;;;;;;5068325;28;20048;-64
2023/08/23 07:13:39;;;;;;;15.30;7.72;;;;;;;;;;5069645;28;20048;-65
2023/08/23 07:16:06;;;;;;;18.17;7.55;;;;;;;;;;5065922;28;20135;-65
2023/08/23 07:18:33;;;;;;;17.92;8.13;;;;;;;;;;5066735;28;20774;-64
2023/08/23 07:21:02;;;;;;;13.88;7.32;;;;;;;;;;5074061;28;20135;-64
2023/08/23 07:23:29;;;;;;;12.93;8.05;;;;;;;;;;5062543;28;20049;-65
2023/08/23 07:25:58;;;;;;;14.63;7.88;;;;;;;;;;5075840;28;20125;-65
2023/08/23 07:28:25;;;;;;;17.42;7.28;;;;;;;;;;5053591;28;20090;-65
2023/08/23 07:30:56;;;;;;;18.67;8.35;;;;;;;;;;5072118;28;20052;-65
2023/08/23 07:33:24;;;;;;;14.27;7.35;;;;;;;;;;5076349;28;20072;-65
2023/08/23 07:35:55;;;;;;;19.23;7.90;;;;;;;;;;5075200;28;20107;-65
2023/08/23 07:38:23;;;;;;;16.67;8.00;;;;;;;;;;5070988;28;20048;-65
2023/08/23 07:40:50;;;;;;;13.80;7.30;;;;;;;;;;5077004;28;20045;-65
2023/08/23 07:43:19;;;;;;;13.57;7.95;;;;;;;;;;5058770;28;20051;-66
2023/08/23 07:45:46;;;;;;;15.90;7.63;;;;;;;;;;5069453;28;20128;-66
2023/08/23 07:48:13;;;;;;;14.18;6.75;;;;;;;;;;5078517;28;20131;-64
2023/08/23 07:50:40;;;;;;;10.88;6.18;;;;;;;;;;5070441;28;20052;-64
2023/08/23 07:53:07;;;;;;;9.77;5.38;;;;;;;;;;5073857;28;20048;-66
2023/08/23 07:55:35;;;;;;;13.85;6.43;;;;;;;;;;5060729;28;20052;-65
2023/08/23 07:58:02;;;;;;;12.35;5.78;;;;;;;;;;5073761;28;20048;-65
2023/08/23 08:00:31;;;;;;;11.52;6.15;;;;;;;;;;5054187;28;20056;-65
2023/08/23 08:02:58;;;;;;;11.68;5.60;;;;;;;;;;5066304;28;20051;-65
2023/08/23 08:05:25;;;;;;;11.85;5.40;;;;;;;;;;5051730;28;20060;-65
2023/08/23 08:07:53;;;;;;;11.85;5.45;;;;;;;;;;5070835;28;20041;-65
2023/08/23 08:10:20;;;;;;;15.57;7.40;;;;;;;;;;5059823;28;20601;-64
2023/08/23 08:12:48;;;;;;;13.55;6.80;;;;;;;;;;5065144;28;20506;-65
2023/08/23 08:15:15;;;;;;;11.15;6.50;;;;;;;;;;5059390;28;20047;-66
2023/08/23 08:17:44;;;;;;;15.80;7.32;;;;;;;;;;5051795;28;20041;-65
2023/08/23 08:20:12;;;;;;;10.77;6.60;;;;;;;;;;5038385;28;20143;-65
2023/08/23 08:22:39;;;;;;;10.15;5.65;;;;;;;;;;5042384;28;20135;-64
2023/08/23 08:25:08;;;;;;;10.70;5.88;;;;;;;;;;5060094;28;20488;-65
2023/08/23 08:27:36;;;;;;;10.70;5.88;;;;;;;;;;5064267;28;20059;-65
2023/08/23 08:30:03;;;;;;;11.18;5.32;;;;;;;;;;5059762;28;20476;-65
2023/08/23 08:32:30;;;;;;;7.40;4.82;;;;;;;;;;5069870;28;20052;-65
2023/08/23 08:35:00;;;;;;;12.73;5.70;;;;;;;;;;5067203;28;20428;-65
2023/08/23 08:37:27;;;;;;;12.55;4.88;;;;;;;;;;5063705;28;20051;-65
2023/08/23 08:39:54;;;;;;;9.13;4.45;;;;;;;;;;5060361;28;20053;-65
2023/08/23 08:42:22;;;;;;;11.45;4.40;;;;;;;;;;5063372;28;20052;-65
2023/08/23 08:44:49;;;;;;;7.93;4.30;;;;;;;;;;5058331;28;20123;-66
2023/08/23 08:47:16;;;;;;;7.22;3.55;;;;;;;;;;5063861;28;20044;-65
2023/08/23 08:49:44;;;;;;;13.27;4.03;;;;;;;;;;5062752;28;20487;-65
2023/08/23 08:52:14;;;;;;;8.15;3.97;;;;;;;;;;5070366;28;20858;-65
2023/08/23 08:54:43;;;;;;;7.25;3.40;;;;;;;;;;5065162;28;20067;-65
2023/08/23 08:57:11;;;;;;;12.25;4.22;;;;;;;;;;5067577;28;20049;-65
2023/08/23 08:59:40;;;;;;;6.30;3.38;;;;;;;;;;5061741;28;20057;-66
2023/08/23 09:02:09;;;;;;;5.65;2.95;;;;;;;;;;5061058;28;20128;-65
2023/08/23 09:04:38;;;;;;;5.35;2.13;;;;;;;;;;5068711;28;20055;-65
2023/08/23 09:07:05;;;;;;;8.43;2.38;;;;;;;;;;5067398;28;20131;-66
2023/08/23 09:09:35;;;;;;;7.65;3.10;;;;;;;;;;5069845;28;20500;-65
2023/08/23 09:12:02;;;;;;;6.28;3.92;;;;;;;;;;5066603;28;20465;-66
2023/08/23 09:14:30;;;;;;;7.72;3.72;;;;;;;;;;5052477;28;20053;-65
2023/08/23 09:16:57;;;;;;;7.70;3.78;;;;;;;;;;5066840;28;20067;-65
2023/08/23 09:19:24;;;;;;;7.13;3.55;;;;;;;;;;5069321;28;20044;-65
2023/08/23 09:21:51;;;;;;;6.75;3.28;;;;;;;;;;5064900;28;20239;-65
2023/08/23 09:24:20;;;;;;;7.90;3.42;;;;;;;;;;5069794;28;20048;-66
2023/08/23 09:26:49;;;;;;;8.40;3.55;;;;;;;;;;5067918;28;20056;-65
2023/08/23 09:29:16;;;;;;;7.07;3.28;;;;;;;;;;5068441;28;20052;-65
2023/08/23 09:31:43;;;;;;;5.95;3.92;;;;;;;;;;5066750;28;20060;-65
2023/08/23 09:34:14;;;;;;;8.10;3.60;;;;;;;;;;5067755;28;20479;-65
2023/08/23 09:36:41;;;;;;;6.97;2.95;;;;;;;;;;5069705;28;20048;-65
2023/08/23 09:39:09;;;;;;;5.32;2.50;;;;;;;;;;5069524;28;20041;-65
2023/08/23 09:41:38;;;;;;;6.47;2.78;;;;;;;;;;5069399;28;20053;-65
2023/08/23 09:44:07;;;;;;;7.15;2.80;;;;;;;;;;5067011;28;20044;-65
2023/08/23 09:46:35;;;;;;;4.45;2.88;;;;;;;;;;5063470;28;20538;-65
2023/08/23 09:49:05;;;;;;;5.15;2.83;;;;;;;;;;5067519;28;20105;-65
2023/08/23 09:51:35;;;;;;;7.22;2.47;;;;;;;;;;5067465;28;20063;-65
2023/08/23 09:54:09;;;;;;;4.95;2.35;;;;;;;;;;5052607;28;20376;-66
2023/08/23 09:56:37;;;;;;;4.57;1.95;;;;;;;;;;5066231;28;20049;-65
2023/08/23 09:59:04;;;;;;;4.03;2.30;;;;;;;;;;5067803;28;20682;-65
2023/08/23 10:01:33;;;;;;;4.95;1.90;;;;;;;;;;5066467;28;20051;-65
2023/08/23 10:04:01;;;;;;;4.88;1.70;;;;;;;;;;5068371;28;20057;-65
2023/08/23 10:06:28;;;;;;;4.65;2.30;;;;;;;;;;5064682;28;20049;-65
2023/08/23 10:08:57;;;;;;;5.30;2.47;;;;;;;;;;5066818;28;20510;-66
2023/08/23 10:11:28;;;;;;;7.70;2.63;;;;;;;;;;5060579;28;20045;-65
2023/08/23 10:13:56;;;;;;;6.53;2.25;;;;;;;;;;5062227;28;20045;-66
2023/08/23 10:16:24;;;;;;;5.63;2.28;;;;;;;;;;5065487;28;20399;-66
2023/08/23 10:18:53;;;;;;;7.72;2.05;;;;;;;;;;5064471;28;20059;-65
2023/08/23 10:21:21;;;;;;;7.88;1.88;;;;;;;;;;5059847;28;20052;-66
2023/08/23 10:23:48;;;;;;;4.93;1.70;;;;;;;;;;5060795;28;20137;-66
2023/08/23 10:26:19;;;;;;;9.27;2.00;;;;;;;;;;5067173;28;20048;-66
2023/08/23 10:28:50;;;;;;;7.43;2.40;;;;;;;;;;5063591;28;20823;-66
2023/08/23 10:31:22;;;;;;;3.65;1.88;;;;;;;;;;5067718;28;20049;-66
2023/08/23 10:33:56;;;;;;;7.30;2.50;;;;;;;;;;5049971;28;20075;-65
2023/08/23 10:36:25;;;;;;;6.50;1.73;;;;;;;;;;5068990;28;20053;-66
2023/08/23 10:38:52;;;;;;;5.07;2.20;;;;;;;;;;5067663;28;20198;-66
2023/08/23 10:41:20;;;;;;;4.68;1.52;;;;;;;;;;5071552;28;20055;-66
2023/08/23 10:43:48;;;;;;;3.63;1.90;;;;;;;;;;5067664;28;20369;-65
2023/08/23 10:46:18;;;;;;;4.75;2.03;;;;;;;;;;5065422;28;20385;-66
2023/08/23 10:48:45;;;;;;;4.07;1.85;;;;;;;;;;5070065;28;20052;-66
2023/08/23 10:51:14;;;;;;;4.32;1.60;;;;;;;;;;5072800;28;20048;-66
2023/08/23 10:53:42;;;;;;;3.40;1.48;;;;;;;;;;5072470;28;20057;-65
2023/08/23 10:56:10;;;;;;;5.70;1.60;;;;;;;;;;5070464;28;20044;-65
2023/08/23 10:58:37;;;;;;;4.38;1.00;;;;;;;;;;5070374;28;20041;-66
2023/08/23 11:01:04;;;;;;;4.25;1.40;;;;;;;;;;5071641;28;20048;-66
2023/08/23 11:03:32;;;;;;;7.90;1.15;;;;;;;;;;5069327;28;20094;-65
2023/08/23 11:06:00;;;;;;;3.10;1.17;;;;;;;;;;5071596;28;20051;-66
2023/08/23 11:08:29;;;;;;;1.98;1.02;;;;;;;;;;5069417;28;20057;-66
2023/08/23 11:10:56;;;;;;;3.70;1.30;;;;;;;;;;5067728;28;20736;-66
2023/08/23 11:13:23;;;;;;;2.50;1.00;;;;;;;;;;5066601;28;20056;-66
2023/08/23 11:15:50;;;;;;;2.42;1.40;;;;;;;;;;5071142;28;20360;-66
2023/08/23 11:18:18;;;;;;;6.78;1.40;;;;;;;;;;5066720;28;20049;-66
2023/08/23 11:20:45;;;;;;;4.53;1.60;;;;;;;;;;5066367;28;20044;-66
2023/08/23 11:23:12;;;;;;;3.15;1.23;;;;;;;;;;5069027;28;20044;-67
2023/08/23 11:25:41;;;;;;;3.90;1.30;;;;;;;;;;5067922;28;20052;-66
2023/08/23 11:28:08;;;;;;;8.60;1.42;;;;;;;;;;5072329;28;20045;-66
2023/08/23 11:30:35;;;;;;;4.03;1.23;;;;;;;;;;5063213;28;20041;-66
2023/08/23 11:33:03;;;;;;;2.33;1.08;;;;;;;;;;5072103;28;20048;-66
2023/08/23 11:35:30;;;;;;;2.10;0.88;;;;;;;;;;5071807;28;20466;-66
2023/08/23 11:37:58;;;;;;;4.03;1.40;;;;;;;;;;5068379;28;20446;-66
2023/08/23 11:40:25;;;;;;;5.55;0.95;;;;;;;;;;5071300;28;20495;-66
2023/08/23 11:42:56;;;;;;;3.72;1.20;;;;;;;;;;5069061;28;20255;-66
2023/08/23 11:45:23;;;;;;;3.03;1.20;;;;;;;;;;5054101;28;20558;-66
2023/08/23 11:47:53;;;;;;;4.57;1.50;;;;;;;;;;5054269;28;20057;-66
2023/08/23 11:50:21;;;;;;;2.70;1.00;;;;;;;;;;5066365;28;20049;-66
2023/08/23 11:52:48;;;;;;;2.63;1.10;;;;;;;;;;5061065;28;20049;-66
2023/08/23 11:55:21;;;;;;;2.85;0.98;;;;;;;;;;5068281;28;20046;-66
2023/08/23 11:57:52;;;;;;;3.75;0.80;;;;;;;;;;5068724;28;20048;-66
2023/08/23 12:00:21;;;;;;;5.10;1.10;;;;;;;;;;5047225;28;20136;-67
2023/08/23 12:02:48;;;;;;;2.78;0.98;;;;;;;;;;5045021;28;20049;-66
2023/08/23 12:05:17;;;;;;;4.50;1.42;;;;;;;;;;5045064;28;20154;-66
2023/08/23 12:07:45;;;;;;;5.18;1.50;;;;;;;;;;5044913;28;20398;-67
2023/08/23 12:10:12;;;;;;;5.03;1.35;;;;;;;;;;5047192;28;20068;-66
2023/08/23 12:12:39;;;;;;;3.72;1.63;;;;;;;;;;5025261;28;20704;-66
2023/08/23 12:15:07;;;;;;;3.30;1.58;;;;;;;;;;5046376;28;20056;-66
2023/08/23 12:17:36;;;;;;;3.92;1.60;;;;;;;;;;5045750;28;20056;-66
2023/08/23 12:20:07;;;;;;;3.65;1.30;;;;;;;;;;5044817;28;20053;-66
2023/08/23 12:22:35;;;;;;;4.90;1.40;;;;;;;;;;5045484;28;20059;-67
2023/08/23 12:25:02;;;;;;;4.10;1.45;;;;;;;;;;5031080;28;20045;-66
2023/08/23 12:27:30;;;;;;;2.90;1.70;;;;;;;;;;5045694;28;20057;-66
2023/08/23 12:29:57;;;;;;;3.05;1.60;;;;;;;;;;5048443;28;20511;-67
2023/08/23 12:32:24;;;;;;;4.03;1.50;;;;;;;;;;5046339;28;20151;-67
2023/08/23 12:34:56;;;;;;;4.72;2.05;;;;;;;;;;5046793;28;20060;-66
2023/08/23 12:37:23;;;;;;;4.82;1.90;;;;;;;;;;5046789;28;20049;-66
2023/08/23 12:39:54;;;;;;;4.15;2.10;;;;;;;;;;5034533;28;20048;-67
2023/08/23 12:42:21;;;;;;;3.60;1.83;;;;;;;;;;5045436;28;20491;-67
2023/08/23 12:44:48;;;;;;;6.18;3.08;;;;;;;;;;5048398;28;20120;-66
2023/08/23 12:47:16;;;;;;;4.85;2.70;;;;;;;;;;5044700;28;20052;-67
2023/08/23 12:49:43;;;;;;;4.57;2.33;;;;;;;;;;5045896;28;20049;-67
2023/08/23 12:52:13;;;;;;;3.95;2.65;;;;;;;;;;5047515;28;20072;-66
2023/08/23 12:54:40;;;;;;;4.65;2.20;;;;;;;;;;5047760;28;21262;-67
2023/08/23 12:57:07;;;;;;;4.68;2.00;;;;;;;;;;5046490;28;20056;-67
2023/08/23 12:59:35;;;;;;;5.03;2.28;;;;;;;;;;5061662;28;20048;-66
2023/08/23 13:02:02;;;;;;;3.72;2.13;;;;;;;;;;5047933;28;20044;-67
2023/08/23 13:04:30;;;;;;;3.55;1.95;;;;;;;;;;5062609;28;20208;-66
2023/08/23 13:06:57;;;;;;;4.85;2.53;;;;;;;;;;5066904;28;20420;-67
2023/08/23 13:09:26;;;;;;;6.20;2.38;;;;;;;;;;5064461;28;20085;-67
2023/08/23 13:11:53;;;;;;;3.55;1.85;;;;;;;;;;5063514;28;20062;-66
2023/08/23 13:14:20;;;;;;;5.00;1.83;;;;;;;;;;5062646;28;20049;-66
2023/08/23 13:16:48;;;;;;;3.92;1.80;;;;;;;;;;5067202;28;20051;-66
2023/08/23 13:19:15;;;;;;;4.30;1.75;;;;;;;;;;5061449;28;20048;-67
2023/08/23 13:21:43;;;;;;;3.95;1.60;;;;;;;;;;5066704;28;20052;-67
2023/08/23 13:24:18;;;;;;;2.65;1.50;;;;;;;;;;5066040;28;20067;-67
2023/08/23 13:26:47;;;;;;;2.83;1.20;;;;;;;;;;5066046;28;20048;-67
2023/08/23 13:29:14;;;;;;;3.88;1.50;;;;;;;;;;5064171;28;20399;-66
2023/08/23 13:31:44;;;;;;;2.65;1.13;;;;;;;;;;5063555;28;20045;-66
2023/08/23 13:34:11;;;;;;;1.45;1.08;;;;;;;;;;5063992;28;20059;-66
2023/08/23 13:36:39;;;;;;;2.42;0.93;;;;;;;;;;5057346;28;20918;-66
2023/08/23 13:39:06;;;;;;;2.50;1.00;;;;;;;;;;5058250;28;20037;-66
2023/08/23 13:41:34;;;;;;;3.13;0.80;;;;;;;;;;5065961;28;20056;-67
2023/08/23 13:44:03;;;;;;;2.25;0.93;;;;;;;;;;5059295;28;20053;-67
2023/08/23 13:46:30;;;;;;;2.15;0.80;;;;;;;;;;5065720;28;20397;-67
2023/08/23 13:48:57;;;;;;;2.17;0.85;;;;;;;;;;5065343;28;20188;-66
2023/08/23 13:51:24;;;;;;;3.80;1.00;;;;;;;;;;5064571;28;20052;-67
2023/08/23 13:53:52;;;;;;;1.35;0.70;;;;;;;;;;5064344;28;20720;-67
2023/08/23 13:56:19;;;;;;;2.53;0.80;;;;;;;;;;5047724;28;20048;-68
2023/08/23 13:58:46;;;;;;;1.55;0.90;;;;;;;;;;5063254;28;20071;-67
2023/08/23 14:01:15;;;;;;;1.77;0.80;;;;;;;;;;5054348;28;20059;-67
2023/08/23 14:03:42;;;;;;;2.78;1.10;;;;;;;;;;5066371;28;20071;-68
2023/08/23 14:06:09;;;;;;;2.88;0.80;;;;;;;;;;5064018;28;20049;-67
2023/08/23 14:08:36;;;;;;;2.33;0.75;;;;;;;;;;5064806;28;20407;-67
2023/08/23 14:11:04;;;;;;;1.52;0.80;;;;;;;;;;5056904;28;20056;-67
2023/08/23 14:13:31;;;;;;;3.10;1.10;;;;;;;;;;5061236;28;20455;-67
2023/08/23 14:15:58;;;;;;;1.75;0.65;;;;;;;;;;5070195;28;20049;-66
2023/08/23 14:18:27;;;;;;;0.93;0.70;;;;;;;;;;5070693;28;20067;-67
2023/08/23 14:20:54;;;;;;;2.45;0.77;;;;;;;;;;5070114;28;20396;-67
2023/08/23 14:23:21;;;;;;;2.28;1.13;;;;;;;;;;5062509;28;20143;-67
2023/08/23 14:25:49;;;;;;;1.90;0.90;;;;;;;;;;5055816;28;20053;-67
2023/08/23 14:28:16;;;;;;;1.55;0.90;;;;;;;;;;5071076;28;20055;-67
2023/08/23 14:30:44;;;;;;;2.15;0.82;;;;;;;;;;5065201;28;20071;-67
2023/08/23 14:33:12;;;;;;;5.75;1.05;;;;;;;;;;5068631;28;20106;-66
2023/08/23 14:35:41;;;;;;;4.43;1.05;;;;;;;;;;5065467;28;20106;-66